PWSweather.com
Personal Weather Stations
Station Observations
METEOGM
JesiIT 60035

JesiIT 60035

Lat: 43.525017, Lon: 13.20302

Elevation: 633

Station Type: Honeywell TE923 IROX PRO-X2

http://www.meteogm.it

Latest ConditionsUpdated 9:55:09 AM GMT+01:01 Tuesday, Oct 16, 2018
Currently Today's Max Today's Min Today's Average
Temperature 64.5°F18.1°C 64.5°F18.1°C 60.6°F15.9°C 61.6°F16.4°C
Dew Point 52.9°F11.6°C 54.7°F12.6°C 50.3°F10.2°C 52.2°F11.2°C
Winds 3.0 mph NE4.8 kmh NE 3.0 mph -4.8 kmh - - 0.1 mph 0.2 kmh
Wind Gusts 6.0 mph9.7 kmh 6.0 mph9.7 kmh - -
Humidity 66% 77% 65% 71%
Pressure 29.91 in1012.9 mb 29.91 in1012.9 mb 29.86 in1011.2 mb -
Precipitation - 0.04 in1.0 mm - -
Hour Temp Dew Point Humidity Winds Wind Gusts Pressure Precip Precip Rate Daily Precip Total
09:55 AM 64.5°F18.1°C 52.9°F11.6°C 66% 3.0 mph NE4.8 kmh NE 6.0 mph9.7 kmh 29.91 in1012.9 mb 0.00 in0.0 mm 0.00 in0.0 mm 0.04 in1.0 mm
09:50 AM 64.4°F18.0°C 52.7°F11.5°C 66% 2.0 mph ENE3.2 kmh ENE 5.0 mph8.0 kmh 29.91 in1012.9 mb 0.00 in0.0 mm 0.00 in0.0 mm 0.04 in1.0 mm
09:45 AM 64.2°F17.9°C 52.6°F11.4°C 66% 1.0 mph NE1.6 kmh NE 1.0 mph1.6 kmh 29.91 in1012.9 mb 0.00 in0.0 mm 0.00 in0.0 mm 0.04 in1.0 mm
09:40 AM 63.6°F17.6°C 52.1°F11.2°C 66% 1.0 mph ENE1.6 kmh ENE 2.0 mph3.2 kmh 29.91 in1012.9 mb 0.00 in0.0 mm 0.00 in0.0 mm 0.04 in1.0 mm
09:35 AM 63.5°F17.5°C 51.9°F11.1°C 66% 1.0 mph E1.6 kmh E 2.0 mph3.2 kmh 29.91 in1012.9 mb 0.00 in0.0 mm 0.00 in0.0 mm 0.04 in1.0 mm
09:30 AM 63.5°F17.5°C 51.9°F11.1°C 66% 1.0 mph NE1.6 kmh NE 1.0 mph1.6 kmh 29.91 in1012.9 mb 0.00 in0.0 mm 0.00 in0.0 mm 0.04 in1.0 mm
09:25 AM 63.5°F17.5°C 51.5°F10.8°C 65% 1.0 mph ENE1.6 kmh ENE 3.0 mph4.8 kmh 29.91 in1012.9 mb 0.00 in0.0 mm 0.00 in0.0 mm 0.04 in1.0 mm
09:20 AM 63.3°F17.4°C 51.3°F10.7°C 65% 1.0 mph ESE1.6 kmh ESE 2.0 mph3.2 kmh 29.91 in1012.9 mb 0.00 in0.0 mm 0.00 in0.0 mm 0.04 in1.0 mm
09:15 AM 63.3°F17.4°C 51.3°F10.7°C 65% 1.0 mph ENE1.6 kmh ENE 2.0 mph3.2 kmh 29.90 in1012.5 mb 0.00 in0.0 mm 0.00 in0.0 mm 0.04 in1.0 mm
09:10 AM 63.3°F17.4°C 51.3°F10.7°C 65% Calm Calm 2.0 mph3.2 kmh 29.90 in1012.5 mb 0.00 in0.0 mm 0.00 in0.0 mm 0.04 in1.0 mm
09:05 AM 63.1°F17.3°C 51.1°F10.6°C 65% Calm Calm 1.0 mph1.6 kmh 29.90 in1012.5 mb 0.00 in0.0 mm 0.00 in0.0 mm 0.04 in1.0 mm
09:00 AM 63.1°F17.3°C 51.1°F10.6°C 65% Calm Calm 1.0 mph1.6 kmh 29.90 in1012.5 mb 0.00 in0.0 mm 0.00 in0.0 mm 0.04 in1.0 mm
08:55 AM 63.1°F17.3°C 51.1°F10.6°C 65% Calm Calm -- 29.90 in1012.5 mb 0.00 in0.0 mm 0.00 in0.0 mm 0.04 in1.0 mm
08:50 AM 63.1°F17.3°C 51.1°F10.6°C 65% Calm Calm -- 29.90 in1012.5 mb 0.00 in0.0 mm 0.00 in0.0 mm 0.04 in1.0 mm
08:45 AM 62.7°F17.1°C 51.2°F10.7°C 66% Calm Calm -- 29.90 in1012.5 mb 0.00 in0.0 mm 0.00 in0.0 mm 0.04 in1.0 mm
08:40 AM 62.4°F16.9°C 50.9°F10.5°C 66% Calm Calm -- 29.90 in1012.5 mb 0.00 in0.0 mm 0.00 in0.0 mm 0.04 in1.0 mm
08:35 AM 62.2°F16.8°C 50.7°F10.4°C 66% Calm Calm -- 29.90 in1012.5 mb 0.00 in0.0 mm 0.00 in0.0 mm 0.04 in1.0 mm
08:30 AM 62.0°F16.7°C 50.9°F10.5°C 67% Calm Calm -- 29.90 in1012.5 mb 0.00 in0.0 mm 0.00 in0.0 mm 0.04 in1.0 mm
08:25 AM 62.0°F16.7°C 50.9°F10.5°C 67% Calm Calm -- 29.90 in1012.5 mb 0.00 in0.0 mm 0.00 in0.0 mm 0.04 in1.0 mm
08:20 AM 61.8°F16.6°C 50.7°F10.4°C 67% Calm Calm -- 29.90 in1012.5 mb 0.00 in0.0 mm 0.00 in0.0 mm 0.04 in1.0 mm
08:15 AM 61.7°F16.5°C 50.6°F10.3°C 67% Calm Calm -- 29.90 in1012.5 mb 0.00 in0.0 mm 0.00 in0.0 mm 0.04 in1.0 mm
08:10 AM 61.7°F16.5°C 50.6°F10.3°C 67% Calm Calm -- 29.90 in1012.5 mb 0.00 in0.0 mm 0.00 in0.0 mm 0.04 in1.0 mm
08:05 AM 61.5°F16.4°C 50.4°F10.2°C 67% Calm Calm -- 29.90 in1012.5 mb 0.00 in0.0 mm 0.00 in0.0 mm 0.04 in1.0 mm
08:00 AM 61.3°F16.3°C 50.6°F10.3°C 68% Calm Calm -- 29.90 in1012.5 mb 0.00 in0.0 mm 0.00 in0.0 mm 0.04 in1.0 mm
07:55 AM 61.3°F16.3°C 50.6°F10.3°C 68% Calm Calm -- 29.89 in1012.2 mb 0.00 in0.0 mm 0.00 in0.0 mm 0.04 in1.0 mm
07:50 AM 61.3°F16.3°C 50.6°F10.3°C 68% Calm Calm -- 29.89 in1012.2 mb 0.00 in0.0 mm 0.00 in0.0 mm 0.04 in1.0 mm
07:45 AM 61.1°F16.2°C 50.5°F10.3°C 68% Calm Calm -- 29.89 in1012.2 mb 0.00 in0.0 mm 0.00 in0.0 mm 0.04 in1.0 mm
07:40 AM 61.1°F16.2°C 50.5°F10.3°C 68% Calm Calm -- 29.89 in1012.2 mb 0.00 in0.0 mm 0.00 in0.0 mm 0.04 in1.0 mm
07:35 AM 61.1°F16.2°C 50.5°F10.3°C 68% Calm Calm -- 29.88 in1011.9 mb 0.00 in0.0 mm 0.00 in0.0 mm 0.04 in1.0 mm
07:30 AM 61.1°F16.2°C 50.5°F10.3°C 68% Calm Calm -- 29.88 in1011.9 mb 0.00 in0.0 mm 0.00 in0.0 mm 0.04 in1.0 mm
07:25 AM 60.9°F16.1°C 50.3°F10.2°C 68% Calm Calm -- 29.88 in1011.9 mb 0.00 in0.0 mm 0.00 in0.0 mm 0.04 in1.0 mm
07:20 AM 60.9°F16.1°C 50.3°F10.2°C 68% Calm Calm -- 29.88 in1011.9 mb 0.00 in0.0 mm 0.00 in0.0 mm 0.04 in1.0 mm
07:15 AM 60.9°F16.1°C 50.3°F10.2°C 68% Calm Calm -- 29.88 in1011.9 mb 0.00 in0.0 mm 0.00 in0.0 mm 0.04 in1.0 mm
07:10 AM 60.9°F16.1°C 50.3°F10.2°C 68% Calm Calm -- 29.88 in1011.9 mb 0.00 in0.0 mm 0.00 in0.0 mm 0.04 in1.0 mm
07:05 AM 60.9°F16.1°C 50.3°F10.2°C 68% Calm Calm -- 29.88 in1011.9 mb 0.00 in0.0 mm 0.00 in0.0 mm 0.04 in1.0 mm
07:00 AM 60.9°F16.1°C 50.7°F10.4°C 69% Calm Calm -- 29.88 in1011.9 mb 0.00 in0.0 mm 0.00 in0.0 mm 0.04 in1.0 mm
06:55 AM 60.8°F16.0°C 50.5°F10.3°C 69% Calm Calm -- 29.87 in1011.5 mb 0.00 in0.0 mm 0.00 in0.0 mm 0.04 in1.0 mm
06:50 AM 60.9°F16.1°C 50.7°F10.4°C 69% Calm Calm -- 29.87 in1011.5 mb 0.00 in0.0 mm 0.00 in0.0 mm 0.04 in1.0 mm
06:45 AM 60.9°F16.1°C 50.7°F10.4°C 69% Calm Calm -- 29.87 in1011.5 mb 0.00 in0.0 mm 0.00 in0.0 mm 0.04 in1.0 mm
06:40 AM 60.8°F16.0°C 50.5°F10.3°C 69% Calm Calm -- 29.87 in1011.5 mb 0.00 in0.0 mm 0.00 in0.0 mm 0.04 in1.0 mm
06:35 AM 60.9°F16.1°C 50.7°F10.4°C 69% Calm Calm -- 29.87 in1011.5 mb 0.00 in0.0 mm 0.00 in0.0 mm 0.04 in1.0 mm
06:30 AM 60.9°F16.1°C 50.7°F10.4°C 69% Calm Calm -- 29.87 in1011.5 mb 0.00 in0.0 mm 0.00 in0.0 mm 0.04 in1.0 mm
06:25 AM 60.9°F16.1°C 50.7°F10.4°C 69% Calm Calm -- 29.87 in1011.5 mb 0.00 in0.0 mm 0.00 in0.0 mm 0.04 in1.0 mm
06:20 AM 60.9°F16.1°C 51.1°F10.6°C 70% Calm Calm -- 29.87 in1011.5 mb 0.00 in0.0 mm 0.00 in0.0 mm 0.04 in1.0 mm
06:15 AM 60.6°F15.9°C 50.7°F10.4°C 70% Calm Calm -- 29.87 in1011.5 mb 0.00 in0.0 mm 0.00 in0.0 mm 0.04 in1.0 mm
06:10 AM 60.6°F15.9°C 51.1°F10.6°C 71% Calm Calm -- 29.87 in1011.5 mb 0.00 in0.0 mm 0.00 in0.0 mm 0.04 in1.0 mm
06:05 AM 60.6°F15.9°C 51.1°F10.6°C 71% Calm Calm -- 29.87 in1011.5 mb 0.00 in0.0 mm 0.00 in0.0 mm 0.04 in1.0 mm
06:00 AM 60.6°F15.9°C 51.5°F10.8°C 72% Calm Calm -- 29.87 in1011.5 mb 0.00 in0.0 mm 0.00 in0.0 mm 0.04 in1.0 mm
05:55 AM 60.8°F16.0°C 51.7°F10.9°C 72% Calm Calm -- 29.88 in1011.9 mb 0.00 in0.0 mm 0.00 in0.0 mm 0.04 in1.0 mm
05:50 AM 60.8°F16.0°C 51.7°F10.9°C 72% Calm Calm -- 29.88 in1011.9 mb 0.00 in0.0 mm 0.00 in0.0 mm 0.04 in1.0 mm
05:45 AM 60.8°F16.0°C 51.7°F10.9°C 72% Calm Calm -- 29.88 in1011.9 mb 0.04 in1.0 mm 0.00 in0.0 mm 0.04 in1.0 mm
05:40 AM 60.9°F16.1°C 51.8°F11.0°C 72% Calm Calm -- 29.88 in1011.9 mb 0.04 in1.0 mm 0.00 in0.0 mm 0.04 in1.0 mm
05:35 AM 60.9°F16.1°C 51.8°F11.0°C 72% Calm Calm -- 29.87 in1011.5 mb 0.04 in1.0 mm 0.00 in0.0 mm 0.04 in1.0 mm
05:30 AM 61.1°F16.2°C 52.0°F11.1°C 72% Calm Calm -- 29.87 in1011.5 mb 0.04 in1.0 mm 0.00 in0.0 mm 0.04 in1.0 mm
05:25 AM 61.1°F16.2°C 52.0°F11.1°C 72% Calm Calm -- 29.87 in1011.5 mb 0.04 in1.0 mm 0.00 in0.0 mm 0.04 in1.0 mm
05:20 AM 61.1°F16.2°C 52.0°F11.1°C 72% Calm Calm -- 29.87 in1011.5 mb 0.04 in1.0 mm 0.00 in0.0 mm 0.04 in1.0 mm
05:15 AM 61.1°F16.2°C 52.0°F11.1°C 72% Calm Calm -- 29.86 in1011.2 mb 0.04 in1.0 mm 0.00 in0.0 mm 0.04 in1.0 mm
05:10 AM 61.1°F16.2°C 52.4°F11.3°C 73% Calm Calm -- 29.86 in1011.2 mb 0.04 in1.0 mm 0.00 in0.0 mm 0.04 in1.0 mm
05:05 AM 60.9°F16.1°C 52.2°F11.2°C 73% Calm Calm -- 29.86 in1011.2 mb 0.04 in1.0 mm 0.00 in0.0 mm 0.04 in1.0 mm
05:00 AM 61.1°F16.2°C 52.4°F11.3°C 73% Calm Calm -- 29.86 in1011.2 mb 0.04 in1.0 mm 0.00 in0.0 mm 0.04 in1.0 mm
04:55 AM 61.3°F16.3°C 52.6°F11.4°C 73% Calm Calm -- 29.87 in1011.5 mb 0.04 in1.0 mm 0.00 in0.0 mm 0.04 in1.0 mm
04:50 AM 61.3°F16.3°C 52.6°F11.4°C 73% Calm Calm -- 29.87 in1011.5 mb 0.04 in1.0 mm 0.48 in12.2 mm 0.04 in1.0 mm
04:45 AM 61.3°F16.3°C 52.6°F11.4°C 73% Calm Calm -- 29.87 in1011.5 mb 0.00 in0.0 mm 0.00 in0.0 mm 0.00 in0.0 mm
04:40 AM 61.3°F16.3°C 52.6°F11.4°C 73% Calm Calm -- 29.87 in1011.5 mb 0.00 in0.0 mm 0.00 in0.0 mm 0.00 in0.0 mm
04:35 AM 61.3°F16.3°C 52.6°F11.4°C 73% Calm Calm -- 29.87 in1011.5 mb 0.00 in0.0 mm 0.00 in0.0 mm 0.00 in0.0 mm
04:30 AM 61.3°F16.3°C 52.6°F11.4°C 73% Calm Calm -- 29.87 in1011.5 mb 0.00 in0.0 mm 0.00 in0.0 mm 0.00 in0.0 mm
04:25 AM 61.3°F16.3°C 52.6°F11.4°C 73% Calm Calm -- 29.87 in1011.5 mb 0.00 in0.0 mm 0.00 in0.0 mm 0.00 in0.0 mm
04:20 AM 61.3°F16.3°C 52.6°F11.4°C 73% Calm Calm -- 29.87 in1011.5 mb 0.00 in0.0 mm 0.00 in0.0 mm 0.00 in0.0 mm
04:15 AM 61.3°F16.3°C 52.6°F11.4°C 73% Calm Calm -- 29.87 in1011.5 mb 0.00 in0.0 mm 0.00 in0.0 mm 0.00 in0.0 mm
04:10 AM 61.3°F16.3°C 52.6°F11.4°C 73% Calm Calm -- 29.87 in1011.5 mb 0.00 in0.0 mm 0.00 in0.0 mm 0.00 in0.0 mm
04:05 AM 61.1°F16.2°C 52.8°F11.6°C 74% Calm Calm -- 29.87 in1011.5 mb 0.00 in0.0 mm 0.00 in0.0 mm 0.00 in0.0 mm
04:00 AM 61.3°F16.3°C 52.6°F11.4°C 73% Calm Calm -- 29.87 in1011.5 mb 0.00 in0.0 mm 0.00 in0.0 mm 0.00 in0.0 mm
03:55 AM 61.3°F16.3°C 52.6°F11.4°C 73% Calm Calm -- 29.87 in1011.5 mb 0.00 in0.0 mm 0.00 in0.0 mm 0.00 in0.0 mm
03:50 AM 61.3°F16.3°C 52.6°F11.4°C 73% Calm Calm -- 29.87 in1011.5 mb 0.00 in0.0 mm 0.00 in0.0 mm 0.00 in0.0 mm
03:45 AM 61.3°F16.3°C 52.6°F11.4°C 73% Calm Calm -- 29.87 in1011.5 mb 0.00 in0.0 mm 0.00 in0.0 mm 0.00 in0.0 mm
03:40 AM 61.5°F16.4°C 52.7°F11.5°C 73% Calm Calm -- 29.87 in1011.5 mb 0.00 in0.0 mm 0.00 in0.0 mm 0.00 in0.0 mm
03:35 AM 61.3°F16.3°C 52.6°F11.4°C 73% Calm Calm -- 29.87 in1011.5 mb 0.00 in0.0 mm 0.00 in0.0 mm 0.00 in0.0 mm
03:30 AM 61.1°F16.2°C 52.8°F11.6°C 74% Calm Calm -- 29.87 in1011.5 mb 0.00 in0.0 mm 0.00 in0.0 mm 0.00 in0.0 mm
03:25 AM 61.1°F16.2°C 52.8°F11.6°C 74% Calm Calm -- 29.87 in1011.5 mb 0.00 in0.0 mm 0.00 in0.0 mm 0.00 in0.0 mm
03:20 AM 61.1°F16.2°C 52.8°F11.6°C 74% Calm Calm -- 29.87 in1011.5 mb 0.00 in0.0 mm 0.00 in0.0 mm 0.00 in0.0 mm
03:15 AM 61.3°F16.3°C 52.9°F11.6°C 74% Calm Calm -- 29.87 in1011.5 mb 0.00 in0.0 mm 0.00 in0.0 mm 0.00 in0.0 mm
03:10 AM 61.3°F16.3°C 52.9°F11.6°C 74% Calm Calm -- 29.87 in1011.5 mb 0.00 in0.0 mm 0.00 in0.0 mm 0.00 in0.0 mm
03:05 AM 61.3°F16.3°C 52.9°F11.6°C 74% Calm Calm -- 29.87 in1011.5 mb 0.00 in0.0 mm 0.00 in0.0 mm 0.00 in0.0 mm
03:00 AM 61.3°F16.3°C 52.9°F11.6°C 74% Calm Calm -- 29.87 in1011.5 mb 0.00 in0.0 mm 0.00 in0.0 mm 0.00 in0.0 mm
02:55 AM 61.3°F16.3°C 52.9°F11.6°C 74% Calm Calm -- 29.87 in1011.5 mb 0.00 in0.0 mm 0.00 in0.0 mm 0.00 in0.0 mm
02:50 AM 61.3°F16.3°C 52.9°F11.6°C 74% Calm Calm -- 29.87 in1011.5 mb 0.00 in0.0 mm 0.00 in0.0 mm 0.00 in0.0 mm
02:45 AM 61.3°F16.3°C 52.9°F11.6°C 74% Calm Calm 1.0 mph1.6 kmh 29.87 in1011.5 mb 0.00 in0.0 mm 0.00 in0.0 mm 0.00 in0.0 mm
02:40 AM 61.3°F16.3°C 52.9°F11.6°C 74% Calm Calm 1.0 mph1.6 kmh 29.87 in1011.5 mb 0.00 in0.0 mm 0.00 in0.0 mm 0.00 in0.0 mm
02:35 AM 61.3°F16.3°C 52.9°F11.6°C 74% Calm Calm 1.0 mph1.6 kmh 29.88 in1011.9 mb 0.00 in0.0 mm 0.00 in0.0 mm 0.00 in0.0 mm
02:30 AM 61.3°F16.3°C 52.9°F11.6°C 74% Calm Calm 1.0 mph1.6 kmh 29.88 in1011.9 mb 0.00 in0.0 mm 0.00 in0.0 mm 0.00 in0.0 mm
02:25 AM 61.5°F16.4°C 53.1°F11.7°C 74% Calm Calm 1.0 mph1.6 kmh 29.88 in1011.9 mb 0.00 in0.0 mm 0.00 in0.0 mm 0.00 in0.0 mm
02:20 AM 61.7°F16.5°C 53.6°F12.0°C 75% Calm Calm -- 29.88 in1011.9 mb 0.00 in0.0 mm 0.00 in0.0 mm 0.00 in0.0 mm
02:15 AM 61.5°F16.4°C 53.1°F11.7°C 74% Calm Calm -- 29.88 in1011.9 mb 0.00 in0.0 mm 0.00 in0.0 mm 0.00 in0.0 mm
02:10 AM 61.5°F16.4°C 53.1°F11.7°C 74% Calm Calm -- 29.88 in1011.9 mb 0.00 in0.0 mm 0.00 in0.0 mm 0.00 in0.0 mm
02:05 AM 61.7°F16.5°C 53.3°F11.8°C 74% Calm Calm -- 29.88 in1011.9 mb 0.00 in0.0 mm 0.00 in0.0 mm 0.00 in0.0 mm
02:00 AM 61.7°F16.5°C 53.6°F12.0°C 75% Calm Calm -- 29.88 in1011.9 mb 0.00 in0.0 mm 0.00 in0.0 mm 0.00 in0.0 mm
01:55 AM 61.7°F16.5°C 53.6°F12.0°C 75% Calm Calm -- 29.89 in1012.2 mb 0.00 in0.0 mm 0.00 in0.0 mm 0.00 in0.0 mm
01:50 AM 61.7°F16.5°C 53.6°F12.0°C 75% Calm Calm -- 29.89 in1012.2 mb 0.00 in0.0 mm 0.00 in0.0 mm 0.00 in0.0 mm
01:45 AM 61.7°F16.5°C 53.3°F11.8°C 74% Calm Calm -- 29.89 in1012.2 mb 0.00 in0.0 mm 0.00 in0.0 mm 0.00 in0.0 mm
01:40 AM 61.7°F16.5°C 53.6°F12.0°C 75% Calm Calm -- 29.89 in1012.2 mb 0.00 in0.0 mm 0.00 in0.0 mm 0.00 in0.0 mm
01:35 AM 61.3°F16.3°C 53.3°F11.8°C 75% Calm Calm -- 29.88 in1011.9 mb 0.00 in0.0 mm 0.00 in0.0 mm 0.00 in0.0 mm
01:30 AM 61.5°F16.4°C 53.5°F11.9°C 75% Calm Calm -- 29.88 in1011.9 mb 0.00 in0.0 mm 0.00 in0.0 mm 0.00 in0.0 mm
01:25 AM 61.3°F16.3°C 53.3°F11.8°C 75% Calm Calm -- 29.88 in1011.9 mb 0.00 in0.0 mm 0.00 in0.0 mm 0.00 in0.0 mm
01:20 AM 61.3°F16.3°C 53.3°F11.8°C 75% Calm Calm -- 29.88 in1011.9 mb 0.00 in0.0 mm 0.00 in0.0 mm 0.00 in0.0 mm
01:15 AM 61.3°F16.3°C 53.3°F11.8°C 75% Calm Calm -- 29.88 in1011.9 mb 0.00 in0.0 mm 0.00 in0.0 mm 0.00 in0.0 mm
01:10 AM 61.5°F16.4°C 53.5°F11.9°C 75% Calm Calm -- 29.88 in1011.9 mb 0.00 in0.0 mm 0.00 in0.0 mm 0.00 in0.0 mm
01:05 AM 61.5°F16.4°C 53.5°F11.9°C 75% Calm Calm -- 29.88 in1011.9 mb 0.00 in0.0 mm 0.00 in0.0 mm 0.00 in0.0 mm
01:00 AM 61.3°F16.3°C 53.7°F12.1°C 76% Calm Calm -- 29.88 in1011.9 mb 0.00 in0.0 mm 0.00 in0.0 mm 0.00 in0.0 mm
12:55 AM 61.5°F16.4°C 53.8°F12.1°C 76% Calm Calm -- 29.88 in1011.9 mb 0.00 in0.0 mm 0.00 in0.0 mm 0.00 in0.0 mm
12:50 AM 61.5°F16.4°C 53.8°F12.1°C 76% Calm Calm -- 29.88 in1011.9 mb 0.00 in0.0 mm 0.00 in0.0 mm 0.00 in0.0 mm
12:45 AM 61.5°F16.4°C 53.8°F12.1°C 76% Calm Calm -- 29.88 in1011.9 mb 0.00 in0.0 mm 0.00 in0.0 mm 0.00 in0.0 mm
12:40 AM 61.7°F16.5°C 54.0°F12.2°C 76% Calm Calm -- 29.88 in1011.9 mb 0.00 in0.0 mm 0.00 in0.0 mm 0.00 in0.0 mm
12:35 AM 61.7°F16.5°C 54.0°F12.2°C 76% Calm Calm -- 29.88 in1011.9 mb 0.00 in0.0 mm 0.00 in0.0 mm 0.00 in0.0 mm
12:30 AM 61.7°F16.5°C 54.0°F12.2°C 76% Calm Calm -- 29.88 in1011.9 mb 0.00 in0.0 mm 0.00 in0.0 mm 0.00 in0.0 mm
12:25 AM 61.7°F16.5°C 54.4°F12.4°C 77% Calm Calm -- 29.88 in1011.9 mb 0.00 in0.0 mm 0.00 in0.0 mm 0.00 in0.0 mm
12:20 AM 61.7°F16.5°C 54.4°F12.4°C 77% Calm Calm -- 29.88 in1011.9 mb 0.00 in0.0 mm 0.00 in0.0 mm 0.00 in0.0 mm
12:15 AM 61.8°F16.6°C 54.5°F12.5°C 77% Calm Calm -- 29.88 in1011.9 mb 0.00 in0.0 mm 0.00 in0.0 mm 0.00 in0.0 mm
12:10 AM 61.8°F16.6°C 54.5°F12.5°C 77% Calm Calm -- 29.88 in1011.9 mb 0.00 in0.0 mm 0.00 in0.0 mm 0.00 in0.0 mm
12:05 AM 62.0°F16.7°C 54.7°F12.6°C 77% Calm Calm -- 29.88 in1011.9 mb 0.00 in0.0 mm 0.00 in0.0 mm 0.00 in0.0 mm
12:00 AM 62.0°F16.7°C 54.7°F12.6°C 77% Calm Calm -- 29.88 in1011.9 mb 0.00 in0.0 mm 0.00 in0.0 mm 0.00 in0.0 mm